sensor_id;sensor_type;location;lat;lon;timestamp;pressure;altitude;pressure_sealevel;temperature;humidity
61697;BME280;47610;52.252;20.922;2023-02-16T00:02:47;101148.80;;;-0.16;100.00
61697;BME280;47610;52.252;20.922;2023-02-16T00:07:53;101147.17;;;-0.25;100.00
61697;BME280;47610;52.252;20.922;2023-02-16T00:12:57;101142.46;;;-0.31;100.00
61697;BME280;47610;52.252;20.922;2023-02-16T00:18:11;101132.85;;;-0.36;100.00
61697;BME280;47610;52.252;20.922;2023-02-16T00:23:18;101120.94;;;-0.41;100.00
61697;BME280;47610;52.252;20.922;2023-02-16T00:28:22;101099.18;;;-0.52;100.00
61697;BME280;47610;52.252;20.922;2023-02-16T00:33:26;101100.29;;;-0.49;100.00
61697;BME280;47610;52.252;20.922;2023-02-16T00:38:28;101094.75;;;-0.53;100.00
61697;BME280;47610;52.252;20.922;2023-02-16T00:43:34;101081.98;;;-0.53;100.00
61697;BME280;47610;52.252;20.922;2023-02-16T00:48:37;101078.27;;;-0.52;100.00
61697;BME280;47610;52.252;20.922;2023-02-16T00:53:41;101077.48;;;-0.50;100.00
61697;BME280;47610;52.252;20.922;2023-02-16T00:58:44;101076.27;;;-0.44;100.00
61697;BME280;47610;52.252;20.922;2023-02-16T01:03:49;101070.77;;;-0.39;100.00
61697;BME280;47610;52.252;20.922;2023-02-16T01:08:54;101066.27;;;-0.33;100.00
61697;BME280;47610;52.252;20.922;2023-02-16T01:13:58;101061.52;;;-0.30;100.00
61697;BME280;47610;52.252;20.922;2023-02-16T01:19:04;101063.09;;;-0.28;100.00
61697;BME280;47610;52.252;20.922;2023-02-16T01:24:09;101062.80;;;-0.29;100.00
61697;BME280;47610;52.252;20.922;2023-02-16T01:29:17;101059.65;;;-0.31;100.00
61697;BME280;47610;52.252;20.922;2023-02-16T01:34:21;101049.15;;;-0.37;100.00
61697;BME280;47610;52.252;20.922;2023-02-16T01:39:25;101045.48;;;-0.43;100.00
61697;BME280;47610;52.252;20.922;2023-02-16T01:44:31;101034.40;;;-0.54;100.00
61697;BME280;47610;52.252;20.922;2023-02-16T01:49:36;101030.96;;;-0.59;100.00
61697;BME280;47610;52.252;20.922;2023-02-16T02:02:47;101021.71;;;-0.69;100.00
61697;BME280;47610;52.252;20.922;2023-02-16T02:07:56;101015.58;;;-0.76;100.00
61697;BME280;47610;52.252;20.922;2023-02-16T02:13:06;101006.30;;;-0.82;100.00
61697;BME280;47610;52.252;20.922;2023-02-16T02:18:11;101010.23;;;-0.81;100.00
61697;BME280;47610;52.252;20.922;2023-02-16T02:23:25;101010.72;;;-0.84;100.00
61697;BME280;47610;52.252;20.922;2023-02-16T02:28:43;101000.66;;;-0.87;100.00
61697;BME280;47610;52.252;20.922;2023-02-16T02:33:57;100991.74;;;-0.91;100.00
61697;BME280;47610;52.252;20.922;2023-02-16T02:39:18;100995.05;;;-0.94;100.00
61697;BME280;47610;52.252;20.922;2023-02-16T02:44:29;100989.05;;;-0.98;100.00
61697;BME280;47610;52.252;20.922;2023-02-16T02:49:33;100984.98;;;-1.03;100.00
61697;BME280;47610;52.252;20.922;2023-02-16T02:54:39;100981.15;;;-1.07;100.00
61697;BME280;47610;52.252;20.922;2023-02-16T02:59:49;100975.89;;;-1.09;100.00
61697;BME280;47610;52.252;20.922;2023-02-16T03:04:56;100965.84;;;-1.11;100.00
61697;BME280;47610;52.252;20.922;2023-02-16T03:10:11;100956.73;;;-1.13;100.00
61697;BME280;47610;52.252;20.922;2023-02-16T03:15:18;100946.73;;;-1.16;100.00
61697;BME280;47610;52.252;20.922;2023-02-16T03:20:22;100934.36;;;-1.20;100.00
61697;BME280;47610;52.252;20.922;2023-02-16T03:25:30;100930.39;;;-1.24;100.00
61697;BME280;47610;52.252;20.922;2023-02-16T03:30:35;100932.62;;;-1.28;100.00
61697;BME280;47610;52.252;20.922;2023-02-16T03:35:40;100935.62;;;-1.30;100.00
61697;BME280;47610;52.252;20.922;2023-02-16T03:40:48;100934.09;;;-1.33;100.00
61697;BME280;47610;52.252;20.922;2023-02-16T03:45:53;100927.23;;;-1.32;100.00
61697;BME280;47610;52.252;20.922;2023-02-16T03:50:57;100919.40;;;-1.33;100.00
61697;BME280;47610;52.252;20.922;2023-02-16T03:56:00;100903.73;;;-1.35;100.00
61697;BME280;47610;52.252;20.922;2023-02-16T04:01:06;100895.32;;;-1.38;100.00
61697;BME280;47610;52.252;20.922;2023-02-16T04:06:10;100897.60;;;-1.39;100.00
61697;BME280;47610;52.252;20.922;2023-02-16T04:11:13;100895.89;;;-1.41;100.00
61697;BME280;47610;52.252;20.922;2023-02-16T04:21:35;100879.66;;;-1.43;100.00
61697;BME280;47610;52.252;20.922;2023-02-16T04:26:38;100888.08;;;-1.42;100.00
61697;BME280;47610;52.252;20.922;2023-02-16T04:31:42;100885.20;;;-1.42;100.00
61697;BME280;47610;52.252;20.922;2023-02-16T04:36:45;100881.69;;;-1.41;100.00
61697;BME280;47610;52.252;20.922;2023-02-16T04:41:50;100880.14;;;-1.39;100.00
61697;BME280;47610;52.252;20.922;2023-02-16T04:46:53;100880.63;;;-1.37;100.00
61697;BME280;47610;52.252;20.922;2023-02-16T04:51:58;100882.94;;;-1.35;100.00
61697;BME280;47610;52.252;20.922;2023-02-16T04:57:04;100879.42;;;-1.35;100.00
61697;BME280;47610;52.252;20.922;2023-02-16T05:02:09;100881.52;;;-1.33;100.00
61697;BME280;47610;52.252;20.922;2023-02-16T05:07:13;100877.70;;;-1.29;100.00
61697;BME280;47610;52.252;20.922;2023-02-16T05:12:16;100873.90;;;-1.28;100.00
61697;BME280;47610;52.252;20.922;2023-02-16T05:17:23;100873.92;;;-1.26;100.00
61697;BME280;47610;52.252;20.922;2023-02-16T05:22:30;100862.13;;;-1.27;100.00
61697;BME280;47610;52.252;20.922;2023-02-16T05:27:34;100861.91;;;-1.27;100.00
61697;BME280;47610;52.252;20.922;2023-02-16T05:32:38;100865.15;;;-1.27;100.00
61697;BME280;47610;52.252;20.922;2023-02-16T05:37:41;100860.36;;;-1.24;100.00
61697;BME280;47610;52.252;20.922;2023-02-16T05:42:44;100857.02;;;-1.21;100.00
61697;BME280;47610;52.252;20.922;2023-02-16T05:47:48;100852.20;;;-1.17;100.00
61697;BME280;47610;52.252;20.922;2023-02-16T05:52:51;100858.98;;;-1.13;100.00
61697;BME280;47610;52.252;20.922;2023-02-16T05:57:55;100851.48;;;-1.08;100.00
61697;BME280;47610;52.252;20.922;2023-02-16T06:02:59;100843.29;;;-1.01;100.00
61697;BME280;47610;52.252;20.922;2023-02-16T06:08:04;100845.04;;;-0.92;100.00
61697;BME280;47610;52.252;20.922;2023-02-16T06:13:08;100859.71;;;-0.78;100.00
61697;BME280;47610;52.252;20.922;2023-02-16T06:18:14;100856.30;;;-0.60;100.00
61697;BME280;47610;52.252;20.922;2023-02-16T06:23:18;100846.94;;;-0.42;100.00
61697;BME280;47610;52.252;20.922;2023-02-16T06:28:22;100855.12;;;-0.22;100.00
61697;BME280;47610;52.252;20.922;2023-02-16T06:43:06;100839.59;;;0.42;100.00
61697;BME280;47610;52.252;20.922;2023-02-16T06:48:10;100839.88;;;0.62;100.00
61697;BME280;47610;52.252;20.922;2023-02-16T06:53:13;100835.60;;;0.88;100.00
61697;BME280;47610;52.252;20.922;2023-02-16T06:58:17;100845.11;;;1.16;100.00
61697;BME280;47610;52.252;20.922;2023-02-16T07:03:21;100841.59;;;1.46;100.00
61697;BME280;47610;52.252;20.922;2023-02-16T07:08:24;100845.80;;;1.80;100.00
61697;BME280;47610;52.252;20.922;2023-02-16T07:13:27;100837.10;;;2.11;100.00
61697;BME280;47610;52.252;20.922;2023-02-16T07:18:32;100832.84;;;2.47;100.00
61697;BME280;47610;52.252;20.922;2023-02-16T07:23:38;100831.79;;;2.89;100.00
61697;BME280;47610;52.252;20.922;2023-02-16T07:28:43;100838.50;;;3.37;100.00
61697;BME280;47610;52.252;20.922;2023-02-16T07:33:47;100834.73;;;3.81;100.00
61697;BME280;47610;52.252;20.922;2023-02-16T07:38:50;100828.88;;;4.18;100.00
61697;BME280;47610;52.252;20.922;2023-02-16T07:43:53;100825.25;;;4.76;100.00
61697;BME280;47610;52.252;20.922;2023-02-16T07:48:58;100817.33;;;5.42;100.00
61697;BME280;47610;52.252;20.922;2023-02-16T07:54:01;100812.65;;;5.81;100.00
61697;BME280;47610;52.252;20.922;2023-02-16T07:59:05;100814.27;;;6.30;100.00
61697;BME280;47610;52.252;20.922;2023-02-16T08:04:09;100818.91;;;7.10;100.00
61697;BME280;47610;52.252;20.922;2023-02-16T08:09:13;100821.92;;;7.90;100.00
61697;BME280;47610;52.252;20.922;2023-02-16T08:14:17;100810.25;;;8.30;100.00
61697;BME280;47610;52.252;20.922;2023-02-16T08:19:24;100808.12;;;9.26;100.00
61697;BME280;47610;52.252;20.922;2023-02-16T08:24:33;100806.83;;;10.55;100.00
61697;BME280;47610;52.252;20.922;2023-02-16T08:29:42;100818.30;;;11.26;100.00
61697;BME280;47610;52.252;20.922;2023-02-16T08:34:48;100821.40;;;11.12;100.00
61697;BME280;47610;52.252;20.922;2023-02-16T08:39:52;100821.98;;;11.19;100.00
61697;BME280;47610;52.252;20.922;2023-02-16T08:44:58;100822.25;;;11.48;100.00
61697;BME280;47610;52.252;20.922;2023-02-16T08:50:03;100819.80;;;11.58;100.00
61697;BME280;47610;52.252;20.922;2023-02-16T09:03:10;100808.43;;;11.60;100.00
61697;BME280;47610;52.252;20.922;2023-02-16T09:08:17;100804.35;;;12.04;100.00
61697;BME280;47610;52.252;20.922;2023-02-16T09:13:25;100803.27;;;12.53;100.00
61697;BME280;47610;52.252;20.922;2023-02-16T09:18:29;100811.16;;;13.06;100.00
61697;BME280;47610;52.252;20.922;2023-02-16T09:23:34;100804.25;;;13.82;96.88
61697;BME280;47610;52.252;20.922;2023-02-16T09:28:41;100810.89;;;14.47;90.39
61697;BME280;47610;52.252;20.922;2023-02-16T09:33:47;100808.28;;;15.34;85.83
61697;BME280;47610;52.252;20.922;2023-02-16T09:38:52;100814.13;;;16.39;80.15
61697;BME280;47610;52.252;20.922;2023-02-16T09:43:59;100816.94;;;16.26;71.36
61697;BME280;47610;52.252;20.922;2023-02-16T09:49:12;100809.60;;;15.82;71.83
61697;BME280;47610;52.252;20.922;2023-02-16T09:54:26;100805.20;;;15.93;72.25
61697;BME280;47610;52.252;20.922;2023-02-16T09:59:43;100813.31;;;16.25;67.44
61697;BME280;47610;52.252;20.922;2023-02-16T10:04:48;100809.39;;;16.27;63.60
61697;BME280;47610;52.252;20.922;2023-02-16T10:09:57;100802.02;;;16.22;63.35
61697;BME280;47610;52.252;20.922;2023-02-16T10:15:12;100799.16;;;15.90;64.85
61697;BME280;47610;52.252;20.922;2023-02-16T10:20:20;100798.05;;;15.40;64.81
61697;BME280;47610;52.252;20.922;2023-02-16T10:25:31;100798.34;;;14.79;66.22
61697;BME280;47610;52.252;20.922;2023-02-16T10:30:37;100792.80;;;14.19;68.90
61697;BME280;47610;52.252;20.922;2023-02-16T10:35:47;100782.68;;;13.82;71.58
61697;BME280;47610;52.252;20.922;2023-02-16T10:40:56;100781.21;;;13.53;70.85
61697;BME280;47610;52.252;20.922;2023-02-16T10:46:07;100770.12;;;13.48;75.45
61697;BME280;47610;52.252;20.922;2023-02-16T10:51:15;100757.94;;;13.58;76.92
61697;BME280;47610;52.252;20.922;2023-02-16T10:56:44;100751.91;;;13.40;78.23
61697;BME280;47610;52.252;20.922;2023-02-16T11:01:53;100747.29;;;12.80;79.66
61697;BME280;47610;52.252;20.922;2023-02-16T11:07:08;100743.95;;;11.98;82.88
61697;BME280;47610;52.252;20.922;2023-02-16T11:12:22;100736.52;;;11.29;88.80
61697;BME280;47610;52.252;20.922;2023-02-16T11:22:41;100733.38;;;10.42;96.81
61697;BME280;47610;52.252;20.922;2023-02-16T11:27:54;100729.59;;;10.12;100.00
61697;BME280;47610;52.252;20.922;2023-02-16T11:33:02;100725.18;;;9.96;100.00
61697;BME280;47610;52.252;20.922;2023-02-16T11:38:20;100726.54;;;9.83;100.00
61697;BME280;47610;52.252;20.922;2023-02-16T11:43:28;100729.77;;;9.78;100.00
61697;BME280;47610;52.252;20.922;2023-02-16T11:48:33;100725.62;;;9.76;100.00
61697;BME280;47610;52.252;20.922;2023-02-16T11:53:39;100723.33;;;9.78;100.00
61697;BME280;47610;52.252;20.922;2023-02-16T11:58:49;100718.91;;;9.69;100.00
61697;BME280;47610;52.252;20.922;2023-02-16T12:04:16;100718.71;;;9.60;100.00
61697;BME280;47610;52.252;20.922;2023-02-16T12:09:33;100714.36;;;9.52;100.00
61697;BME280;47610;52.252;20.922;2023-02-16T12:14:54;100705.47;;;9.36;100.00
61697;BME280;47610;52.252;20.922;2023-02-16T12:20:09;100706.72;;;9.19;100.00
61697;BME280;47610;52.252;20.922;2023-02-16T12:25:29;100702.47;;;9.07;100.00
61697;BME280;47610;52.252;20.922;2023-02-16T12:30:49;100702.02;;;8.96;100.00
61697;BME280;47610;52.252;20.922;2023-02-16T12:36:15;100697.76;;;8.75;100.00
61697;BME280;47610;52.252;20.922;2023-02-16T12:41:30;100699.42;;;8.55;100.00
61697;BME280;47610;52.252;20.922;2023-02-16T12:46:41;100690.26;;;8.45;100.00
61697;BME280;47610;52.252;20.922;2023-02-16T12:51:52;100686.94;;;8.43;100.00
61697;BME280;47610;52.252;20.922;2023-02-16T12:57:02;100690.81;;;8.35;100.00
61697;BME280;47610;52.252;20.922;2023-02-16T13:02:17;100689.04;;;8.19;100.00
61697;BME280;47610;52.252;20.922;2023-02-16T13:07:28;100687.04;;;8.06;100.00
61697;BME280;47610;52.252;20.922;2023-02-16T13:12:38;100679.87;;;8.00;100.00
61697;BME280;47610;52.252;20.922;2023-02-16T13:17:49;100681.28;;;7.96;100.00
61697;BME280;47610;52.252;20.922;2023-02-16T13:28:42;100668.90;;;7.78;100.00
61697;BME280;47610;52.252;20.922;2023-02-16T13:47:42;100660.16;;;7.50;100.00
61697;BME280;47610;52.252;20.922;2023-02-16T13:52:49;100662.05;;;7.47;100.00
61697;BME280;47610;52.252;20.922;2023-02-16T13:58:05;100661.52;;;7.45;100.00
61697;BME280;47610;52.252;20.922;2023-02-16T14:03:37;100652.27;;;7.30;100.00
61697;BME280;47610;52.252;20.922;2023-02-16T14:08:41;100659.52;;;7.12;100.00
61697;BME280;47610;52.252;20.922;2023-02-16T14:13:53;100654.80;;;6.97;100.00
61697;BME280;47610;52.252;20.922;2023-02-16T14:19:03;100654.19;;;6.85;100.00
61697;BME280;47610;52.252;20.922;2023-02-16T14:24:24;100653.73;;;6.72;100.00
61697;BME280;47610;52.252;20.922;2023-02-16T14:29:33;100655.26;;;6.64;100.00
61697;BME280;47610;52.252;20.922;2023-02-16T14:34:45;100652.98;;;6.59;100.00
61697;BME280;47610;52.252;20.922;2023-02-16T14:39:50;100659.15;;;6.51;100.00
61697;BME280;47610;52.252;20.922;2023-02-16T14:45:09;100661.60;;;6.40;100.00
61697;BME280;47610;52.252;20.922;2023-02-16T14:50:38;100658.85;;;6.26;100.00
61697;BME280;47610;52.252;20.922;2023-02-16T14:56:13;100657.98;;;6.15;100.00
61697;BME280;47610;52.252;20.922;2023-02-16T15:01:19;100656.53;;;6.00;100.00
61697;BME280;47610;52.252;20.922;2023-02-16T15:06:33;100655.78;;;5.95;100.00
61697;BME280;47610;52.252;20.922;2023-02-16T15:11:47;100649.58;;;5.90;100.00
61697;BME280;47610;52.252;20.922;2023-02-16T15:16:52;100652.80;;;5.83;100.00
61697;BME280;47610;52.252;20.922;2023-02-16T15:22:17;100648.14;;;5.72;100.00
61697;BME280;47610;52.252;20.922;2023-02-16T15:27:23;100644.82;;;5.59;100.00
61697;BME280;47610;52.252;20.922;2023-02-16T15:32:26;100650.60;;;5.45;100.00
61697;BME280;47610;52.252;20.922;2023-02-16T15:37:32;100645.37;;;5.32;100.00
61697;BME280;47610;52.252;20.922;2023-02-16T15:42:39;100645.73;;;5.19;100.00
61697;BME280;47610;52.252;20.922;2023-02-16T15:47:47;100641.02;;;5.06;100.00
61697;BME280;47610;52.252;20.922;2023-02-16T16:01:58;100629.48;;;4.70;100.00
61697;BME280;47610;52.252;20.922;2023-02-16T16:07:06;100633.89;;;4.54;100.00
61697;BME280;47610;52.252;20.922;2023-02-16T16:12:15;100631.02;;;4.41;100.00
61697;BME280;47610;52.252;20.922;2023-02-16T16:17:25;100631.41;;;4.30;100.00
61697;BME280;47610;52.252;20.922;2023-02-16T16:22:35;100634.23;;;4.20;100.00
61697;BME280;47610;52.252;20.922;2023-02-16T16:27:49;100623.69;;;4.10;100.00
61697;BME280;47610;52.252;20.922;2023-02-16T16:33:03;100620.90;;;4.04;100.00
61697;BME280;47610;52.252;20.922;2023-02-16T16:38:16;100622.39;;;3.98;100.00
61697;BME280;47610;52.252;20.922;2023-02-16T16:43:27;100616.77;;;3.91;100.00
61697;BME280;47610;52.252;20.922;2023-02-16T16:48:37;100613.38;;;3.88;100.00
61697;BME280;47610;52.252;20.922;2023-02-16T16:53:56;100609.55;;;3.84;100.00
61697;BME280;47610;52.252;20.922;2023-02-16T16:59:00;100608.38;;;3.81;100.00
61697;BME280;47610;52.252;20.922;2023-02-16T17:04:03;100603.59;;;3.74;100.00
61697;BME280;47610;52.252;20.922;2023-02-16T17:09:07;100607.11;;;3.75;100.00
61697;BME280;47610;52.252;20.922;2023-02-16T17:14:16;100598.42;;;3.71;100.00
61697;BME280;47610;52.252;20.922;2023-02-16T17:19:23;100599.23;;;3.66;100.00
61697;BME280;47610;52.252;20.922;2023-02-16T17:24:28;100594.35;;;3.59;100.00
61697;BME280;47610;52.252;20.922;2023-02-16T17:29:31;100599.25;;;3.50;100.00
61697;BME280;47610;52.252;20.922;2023-02-16T17:34:37;100592.44;;;3.44;100.00
61697;BME280;47610;52.252;20.922;2023-02-16T17:39:41;100591.69;;;3.40;100.00
61697;BME280;47610;52.252;20.922;2023-02-16T17:44:44;100596.35;;;3.34;100.00
61697;BME280;47610;52.252;20.922;2023-02-16T17:49:48;100597.32;;;3.29;100.00
61697;BME280;47610;52.252;20.922;2023-02-16T17:54:52;100593.21;;;3.23;100.00
61697;BME280;47610;52.252;20.922;2023-02-16T17:59:55;100595.77;;;3.18;100.00
61697;BME280;47610;52.252;20.922;2023-02-16T18:04:58;100596.17;;;3.14;100.00
61697;BME280;47610;52.252;20.922;2023-02-16T18:10:01;100598.89;;;3.09;100.00
61697;BME280;47610;52.252;20.922;2023-02-16T18:20:26;100597.89;;;3.02;100.00
61697;BME280;47610;52.252;20.922;2023-02-16T18:25:32;100597.98;;;2.96;100.00
61697;BME280;47610;52.252;20.922;2023-02-16T18:30:36;100600.01;;;2.94;100.00
61697;BME280;47610;52.252;20.922;2023-02-16T18:35:39;100596.09;;;2.92;100.00
61697;BME280;47610;52.252;20.922;2023-02-16T18:40:45;100596.20;;;2.88;100.00
61697;BME280;47610;52.252;20.922;2023-02-16T18:45:48;100595.25;;;2.85;100.00
61697;BME280;47610;52.252;20.922;2023-02-16T18:50:51;100588.13;;;2.75;100.00
61697;BME280;47610;52.252;20.922;2023-02-16T18:55:55;100594.52;;;2.72;100.00
61697;BME280;47610;52.252;20.922;2023-02-16T19:01:07;100600.44;;;2.66;100.00
61697;BME280;47610;52.252;20.922;2023-02-16T19:06:13;100600.22;;;2.60;100.00
61697;BME280;47610;52.252;20.922;2023-02-16T19:11:18;100603.45;;;2.59;100.00
61697;BME280;47610;52.252;20.922;2023-02-16T19:16:25;100601.03;;;2.54;100.00
61697;BME280;47610;52.252;20.922;2023-02-16T19:21:30;100596.98;;;2.50;100.00
61697;BME280;47610;52.252;20.922;2023-02-16T19:26:31;100595.41;;;2.46;100.00
61697;BME280;47610;52.252;20.922;2023-02-16T19:31:35;100587.67;;;2.37;100.00
61697;BME280;47610;52.252;20.922;2023-02-16T19:36:38;100591.10;;;2.36;100.00
61697;BME280;47610;52.252;20.922;2023-02-16T19:41:42;100592.40;;;2.36;100.00
61697;BME280;47610;52.252;20.922;2023-02-16T19:46:46;100589.20;;;2.33;100.00
61697;BME280;47610;52.252;20.922;2023-02-16T19:51:51;100580.23;;;2.30;100.00
61697;BME280;47610;52.252;20.922;2023-02-16T19:56:54;100578.91;;;2.26;100.00
61697;BME280;47610;52.252;20.922;2023-02-16T20:01:58;100582.89;;;2.23;100.00
61697;BME280;47610;52.252;20.922;2023-02-16T20:07:02;100577.57;;;2.18;100.00
61697;BME280;47610;52.252;20.922;2023-02-16T20:12:07;100583.13;;;2.17;100.00
61697;BME280;47610;52.252;20.922;2023-02-16T20:17:11;100588.44;;;2.15;100.00
61697;BME280;47610;52.252;20.922;2023-02-16T20:22:14;100582.36;;;2.13;100.00
61697;BME280;47610;52.252;20.922;2023-02-16T20:27:17;100587.42;;;2.11;100.00
61697;BME280;47610;52.252;20.922;2023-02-16T20:40:15;100580.17;;;2.07;100.00
61697;BME280;47610;52.252;20.922;2023-02-16T20:45:19;100587.35;;;2.06;100.00
61697;BME280;47610;52.252;20.922;2023-02-16T20:50:22;100591.06;;;2.08;100.00
61697;BME280;47610;52.252;20.922;2023-02-16T20:55:26;100593.23;;;2.10;100.00
61697;BME280;47610;52.252;20.922;2023-02-16T21:00:31;100585.24;;;2.10;100.00
61697;BME280;47610;52.252;20.922;2023-02-16T21:05:37;100582.41;;;2.09;100.00
61697;BME280;47610;52.252;20.922;2023-02-16T21:10:40;100584.66;;;2.07;100.00
61697;BME280;47610;52.252;20.922;2023-02-16T21:15:45;100583.70;;;2.06;100.00
61697;BME280;47610;52.252;20.922;2023-02-16T21:20:47;100581.50;;;2.05;100.00
61697;BME280;47610;52.252;20.922;2023-02-16T21:25:51;100578.88;;;2.02;100.00
61697;BME280;47610;52.252;20.922;2023-02-16T21:31:04;100575.23;;;2.00;100.00
61697;BME280;47610;52.252;20.922;2023-02-16T21:36:12;100571.92;;;2.00;100.00
61697;BME280;47610;52.252;20.922;2023-02-16T21:41:18;100573.84;;;2.02;100.00
61697;BME280;47610;52.252;20.922;2023-02-16T21:46:25;100569.06;;;2.05;100.00
61697;BME280;47610;52.252;20.922;2023-02-16T21:51:33;100562.48;;;2.08;100.00
61697;BME280;47610;52.252;20.922;2023-02-16T21:56:39;100560.79;;;2.12;100.00
61697;BME280;47610;52.252;20.922;2023-02-16T22:01:46;100561.56;;;2.17;100.00
61697;BME280;47610;52.252;20.922;2023-02-16T22:06:52;100560.77;;;2.19;100.00
61697;BME280;47610;52.252;20.922;2023-02-16T22:11:55;100559.56;;;2.18;100.00
61697;BME280;47610;52.252;20.922;2023-02-16T22:16:59;100560.21;;;2.19;100.00
61697;BME280;47610;52.252;20.922;2023-02-16T22:22:03;100561.52;;;2.20;100.00
61697;BME280;47610;52.252;20.922;2023-02-16T22:27:06;100560.29;;;2.22;100.00
61697;BME280;47610;52.252;20.922;2023-02-16T22:32:12;100566.14;;;2.23;100.00
61697;BME280;47610;52.252;20.922;2023-02-16T22:37:16;100566.63;;;2.23;100.00
61697;BME280;47610;52.252;20.922;2023-02-16T22:42:20;100563.59;;;2.25;100.00
61697;BME280;47610;52.252;20.922;2023-02-16T22:47:25;100560.61;;;2.25;100.00
61697;BME280;47610;52.252;20.922;2023-02-16T23:00:04;100549.44;;;2.35;100.00
61697;BME280;47610;52.252;20.922;2023-02-16T23:05:09;100547.69;;;2.36;100.00
61697;BME280;47610;52.252;20.922;2023-02-16T23:10:12;100547.54;;;2.39;100.00
61697;BME280;47610;52.252;20.922;2023-02-16T23:15:18;100549.98;;;2.43;100.00
61697;BME280;47610;52.252;20.922;2023-02-16T23:20:28;100548.80;;;2.46;100.00
61697;BME280;47610;52.252;20.922;2023-02-16T23:25:31;100549.69;;;2.49;100.00
61697;BME280;47610;52.252;20.922;2023-02-16T23:30:35;100552.41;;;2.51;100.00
61697;BME280;47610;52.252;20.922;2023-02-16T23:35:41;100552.73;;;2.53;100.00
61697;BME280;47610;52.252;20.922;2023-02-16T23:40:53;100547.95;;;2.54;100.00
61697;BME280;47610;52.252;20.922;2023-02-16T23:45:58;100549.95;;;2.56;100.00
61697;BME280;47610;52.252;20.922;2023-02-16T23:51:06;100553.12;;;2.56;100.00
61697;BME280;47610;52.252;20.922;2023-02-16T23:56:13;100547.92;;;2.57;100.00
